Prince George Airport
CYXS : now visible

Airfield :











YOU CAN JOIN US ON...

 
LOGIN :

Register | Disclaimer

   EN    FR    IT 

 









Legend :    VFR   Marginal VFR   IFR   Intensive IFR   Very Intensive IFR
Visi :
Ceiling :
>= 8 km
>= 3000ft
5 to 8 km
1000 to 3000 ft
1500m to 5 km
500 to 1000 ft
800 to 1500m
200 to 500 ft
< 800m
< 200 ft
Symbols :   Thunderstorms  Fog  Heavy snow  Heavy precipitations  Wind > 20 kt






- Airport Elevation : 2267 ft
- IATA code : YXS


CYXS - Prince George

CURRENT METAR :
  • 031326Z AUTO 16004KT 160V220 9SM CLR 11/10 A3011 RMK SLP212

EXPIRED METARs :
  • 031300Z AUTO 00000KT 7SM VCTS FEW081 SCT100 13/11 A3011 RMK SLP198 DENSITY ALT 2400FT
  • 031245Z AUTO 18005KT 7SM VCTS BKN091 BKN110 13/12 A3011 RMK LTNG DIST SE SLP208 DENSITY ALT 2400FT
  • 031236Z AUTO 15004KT 090V170 8SM -RA VCTS FEW050 BKN081 BKN098 14/11 A3010 RMK LTNG DIST SE SLP205 DENSITY ALT 2500FT
  • 031224Z AUTO VRB05KT 9SM -RA FEW050 BKN071 BKN100 14/11 A3010 RMK LTNG DIST SE S SLP205 DENSITY ALT 2500FT
  • 031216Z AUTO 34008KT 220V350 7SM TSRA SCT050 BKN071 OVC083 15/10 A3009 RMK LTNG DIST S PRESFR SLP198 DENSITY ALT 2600FT
  • 031200Z AUTO 21007KT 4SM TS BR BKN071 13/12 A3011 RMK LTNG DIST SW PRESRR SLP199 DENSITY ALT 2400FT
  • 031157Z AUTO 21005KT 4SM TS BR BKN066 13/11 A3011 RMK LTNG DIST SW PRESRR SLP207 DENSITY ALT 2400FT
  • 031152Z AUTO 19003KT 100V200 4SM VCTS BR SCT071 13/11 A3010 RMK LTNG DIST SW SLP204 DENSITY ALT 2400FT
  • 031100Z AUTO VRB02KT 4SM BR SCT066 BKN075 BKN110 15/13 A3009 RMK SLP191 DENSITY ALT 2700FT

TAF TAF CYXS
Valid from the 03 at 13:00 until the 04 at 01:00 UTC


031238Z 0313/0401 VRB03KT P6SM FEW080
TEMPO 0313/0314 VRB15G25KT 2SM TSRA FU BR BKN080CB
FM031400 18005KT P6SM SKC
TEMPO 0314/0317 4SM FU
FM032300 VRB03KT P6SM SCT080 RMK FCST BASED ON AUTO OBS. NXT FCST BY 031900Z
CZVR FIR / North America



MET'MAP, your aeronautical weather chart ! - Copyright ORBIFLY December 2007 - Disclaimer

ORBIFLY MET'MAP TEAM :

Programming & Development : Alexandra Zaïnal
Concept & original design : Baudouin d'Aumeries
Assistance for programming : Marc-Olivier Méhu
Technical & hardware support : Manuel Goepfert

Contact : metmap@orbifly.com




SOURCES & CREDITS :

   NOAA       Earth
Advisory